createdAt,value
2023-02-01T16:58:26.695Z,62.93
2023-02-01T17:03:30.689Z,61.55
2023-02-01T17:08:36.511Z,59.83
2023-02-01T17:13:43.138Z,59.14
2023-02-01T17:18:52.543Z,58.10
2023-02-01T17:23:58.810Z,57.53
2023-02-01T17:29:03.644Z,56.83
2023-02-01T17:34:07.115Z,55.97
2023-02-01T17:39:35.149Z,56.45
2023-02-01T17:44:40.212Z,55.90
2023-02-01T17:49:43.590Z,54.99
2023-02-01T17:54:50.474Z,55.55
2023-02-01T17:59:55.301Z,55.56
2023-02-01T18:04:58.960Z,55.48
2023-02-01T18:10:05.796Z,55.77
2023-02-01T18:15:22.432Z,56.33
2023-02-01T18:20:28.338Z,56.20
2023-02-01T18:25:37.214Z,56.89
2023-02-01T18:30:43.899Z,56.67
2023-02-01T18:35:47.420Z,55.76
2023-02-01T18:40:53.299Z,55.51
2023-02-01T18:45:58.239Z,55.63
2023-02-01T18:51:02.189Z,54.61
2023-02-01T18:56:06.207Z,54.35
2023-02-01T19:01:16.481Z,54.51
2023-02-01T19:06:19.914Z,54.77
2023-02-01T19:11:23.500Z,54.73
2023-02-01T19:16:28.416Z,54.59
2023-02-01T19:21:31.824Z,54.46
2023-02-01T19:26:35.265Z,54.18
2023-02-01T19:31:40.404Z,54.39
2023-02-01T19:36:43.859Z,54.57
2023-02-01T19:41:47.564Z,54.91
2023-02-01T19:46:54.108Z,55.34
2023-02-01T19:51:59.818Z,55.56
2023-02-01T19:57:03.783Z,55.74
2023-02-01T20:02:07.863Z,56.09
2023-02-01T20:07:11.820Z,55.30
2023-02-01T20:12:15.231Z,55.29
2023-02-01T20:17:20.011Z,56.09
2023-02-01T20:22:23.534Z,55.30
2023-02-01T20:27:27.892Z,55.91
2023-02-01T20:32:32.862Z,56.68
2023-02-01T20:37:37.972Z,55.92
2023-02-01T20:42:41.745Z,57.62
2023-02-01T20:47:50.325Z,57.76
2023-02-01T20:52:54.091Z,57.65
2023-02-01T20:57:57.456Z,57.47
2023-02-01T21:03:02.169Z,58.49
2023-02-01T21:08:06.046Z,57.87
2023-02-01T21:13:09.725Z,58.09
2023-02-01T21:18:14.496Z,57.90
2023-02-01T21:23:18.810Z,57.17
2023-02-01T21:28:23.207Z,57.37
2023-02-01T21:33:28.572Z,58.18
2023-02-01T21:38:32.078Z,58.38
2023-02-01T21:43:36.596Z,57.87
2023-02-01T21:49:04.441Z,57.96
2023-02-01T21:54:05.385Z,57.83
2023-02-01T21:59:10.231Z,58.44
2023-02-01T22:04:15.253Z,57.60
2023-02-01T22:09:20.489Z,57.18
2023-02-01T22:14:24.534Z,57.17
2023-02-01T22:19:29.568Z,57.80
2023-02-01T22:24:34.521Z,58.52
2023-02-01T22:29:37.854Z,58.79
2023-02-01T22:34:43.163Z,58.72
2023-02-01T22:39:46.597Z,58.88
2023-02-01T22:44:49.978Z,59.09
2023-02-01T22:49:55.699Z,58.33
2023-02-01T22:54:59.008Z,57.96
2023-02-01T23:00:02.454Z,58.08
2023-02-01T23:05:07.863Z,57.64
2023-02-01T23:10:12.758Z,58.03
2023-02-01T23:15:17.484Z,58.54
2023-02-01T23:20:22.790Z,58.74
2023-02-01T23:25:26.372Z,58.65
2023-02-01T23:30:30.086Z,58.43
2023-02-01T23:35:36.094Z,58.87
2023-02-01T23:40:39.561Z,58.94
2023-02-01T23:45:42.912Z,59.00
2023-02-01T23:50:47.774Z,58.69
2023-02-01T23:55:53.502Z,59.17
